CheckWX is a tool to help pilots better visualize weather data.  It is not intended as a substitute for an official pre-flight weather briefing.

21:35:26 UTC

PGSN TAF
Francisco C Ada / Saipan International Airport
Saipan Island, North Mariana Islands
PGSN 201753Z 2018/2118 05008KT P6SM VCSH FEW025 SCT050 FM202300 05014KT P6SM VCSH FEW025 SCT050 FM210900 05009KT P6SM FEW025 FEW050

Mar-20@
18:00 UTC

Mar-20 @ 18:00 UTC

Mar-20@
23:00 UTC

Mar-20 @ 23:00 UTC

PGSN 201753Z 2018/2118 05008KT P6SM VCSH FEW025 SCT050
Wind
  • 050° at 8 KTS
Cloud Levels
  • Few at 2,500' AGL
  • Scattered at 5,000' AGL

Mar-20@
23:00 UTC

Mar-20 @ 23:00 UTC

Mar-21@
09:00 UTC

Mar-21 @ 09:00 UTC

FM202300 05014KT P6SM VCSH FEW025 SCT050

From

From Standard forecast or significant change

Wind
  • 050° at 14 KTS
Cloud Levels
  • Few at 2,500' AGL
  • Scattered at 5,000' AGL

Mar-21@
09:00 UTC

Mar-21 @ 09:00 UTC

Mar-21@
18:00 UTC

Mar-21 @ 18:00 UTC

FM210900 05009KT P6SM FEW025 FEW050

From

From Standard forecast or significant change

Wind
  • 050° at 9 KTS
Cloud Levels
  • Few at 2,500' AGL
  • Few at 5,000' AGL